Time;durP1;ratioP1;P1;durP2;ratioP2;P2;SDS_P1;SDS_P2;PMS_P1;PMS_P2;Temp;Humidity;BMP_temperature;BMP_pressure;BME280_temperature;BME280_humidity;BME280_pressure;Samples;Min_cycle;Max_cycle;Signal;HPM_P1;HPM_P2
2024/04/21 00:02:02;;;;;;;8.43;3.30;;;5.40;99.90;;;;;;6526893;22;20497;-70
2024/04/21 00:04:30;;;;;;;7.43;4.03;;;5.30;99.90;;;;;;6525330;21;20898;-70
2024/04/21 00:06:59;;;;;;;7.80;4.30;;;5.20;99.90;;;;;;6527091;22;20491;-69
2024/04/21 00:09:28;;;;;;;8.93;4.40;;;5.20;99.90;;;;;;6526149;22;20826;-69
2024/04/21 00:11:54;;;;;;;4.63;4.00;;;5.20;99.90;;;;;;6527479;22;20597;-70
2024/04/21 00:14:22;;;;;;;6.03;3.90;;;5.20;99.90;;;;;;6529512;21;20484;-70
2024/04/21 00:16:48;;;;;;;7.43;3.80;;;5.10;99.90;;;;;;6537302;22;20444;-70
2024/04/21 00:19:17;;;;;;;9.20;4.43;;;5.10;99.90;;;;;;6532775;22;20497;-70
2024/04/21 00:21:43;;;;;;;7.20;3.73;;;5.10;99.90;;;;;;6532830;22;20448;-70
2024/04/21 00:24:14;;;;;;;4.50;3.17;;;5.10;99.90;;;;;;6531891;21;20504;-70
2024/04/21 00:26:40;;;;;;;5.30;3.30;;;5.00;99.90;;;;;;6531987;22;20460;-70
2024/04/21 00:29:08;;;;;;;8.37;5.23;;;5.00;99.90;;;;;;6530683;22;20524;-70
2024/04/21 00:31:34;;;;;;;8.00;3.77;;;5.00;99.90;;;;;;6534540;22;20460;-70
2024/04/21 00:34:03;;;;;;;7.23;3.90;;;5.00;99.90;;;;;;6533073;21;20476;-70
2024/04/21 00:36:29;;;;;;;6.83;3.80;;;5.00;99.90;;;;;;6528655;22;20460;-69
2024/04/21 00:38:58;;;;;;;8.67;3.97;;;5.00;99.90;;;;;;6530467;22;20803;-69
2024/04/21 00:41:26;;;;;;;4.23;3.70;;;4.90;99.90;;;;;;6526318;22;20460;-70
2024/04/21 00:43:55;;;;;;;6.57;4.43;;;4.90;99.90;;;;;;6526152;21;20601;-70
2024/04/21 00:46:21;;;;;;;4.50;4.10;;;4.90;99.90;;;;;;6524881;22;20508;-70
2024/04/21 00:48:50;;;;;;;5.90;4.10;;;4.90;99.90;;;;;;6526234;22;20464;-69
2024/04/21 00:51:17;;;;;;;6.53;3.80;;;4.90;99.90;;;;;;6525990;22;20908;-70
2024/04/21 00:53:46;;;;;;;7.07;4.20;;;4.80;99.90;;;;;;6525600;21;20480;-70
2024/04/21 00:56:15;;;;;;;6.60;4.63;;;4.80;99.90;;;;;;6525246;22;20497;-69
2024/04/21 00:58:47;;;;;;;8.20;4.33;;;4.80;99.90;;;;;;6526146;22;20489;-70
2024/04/21 01:01:13;;;;;;;5.93;4.17;;;4.70;99.90;;;;;;6525964;22;20437;-70
2024/04/21 01:03:42;;;;;;;7.93;4.70;;;4.60;99.90;;;;;;6525759;21;20833;-70
2024/04/21 01:06:08;;;;;;;6.63;5.47;;;4.50;99.90;;;;;;6524767;22;20259;-70
2024/04/21 01:08:37;;;;;;;4.07;3.67;;;4.40;99.90;;;;;;6525616;22;20460;-69
2024/04/21 01:11:03;;;;;;;6.57;3.67;;;4.50;99.90;;;;;;6525534;22;20460;-69
2024/04/21 01:13:32;;;;;;;7.83;4.23;;;4.40;99.90;;;;;;6525365;21;20453;-70
2024/04/21 01:16:00;;;;;;;17.17;5.13;;;4.40;99.90;;;;;;6524687;22;20548;-70
2024/04/21 01:18:29;;;;;;;7.97;4.00;;;4.40;99.90;;;;;;6525931;22;20863;-70
2024/04/21 01:20:55;;;;;;;6.70;4.20;;;4.40;99.90;;;;;;6526105;22;20449;-70
2024/04/21 01:23:26;;;;;;;8.27;4.43;;;4.30;99.90;;;;;;6527790;21;20508;-70
2024/04/21 01:25:52;;;;;;;4.73;3.80;;;4.30;99.90;;;;;;6526332;22;20504;-70
2024/04/21 01:28:20;;;;;;;10.07;5.13;;;4.20;99.90;;;;;;6527843;22;20460;-70
2024/04/21 01:30:46;;;;;;;9.60;4.03;;;4.20;99.90;;;;;;6527896;22;20515;-69
2024/04/21 01:33:15;;;;;;;9.93;4.30;;;4.20;99.90;;;;;;6527761;22;20512;-70
2024/04/21 01:35:42;;;;;;;9.63;4.70;;;4.10;99.90;;;;;;6526741;21;20264;-70
2024/04/21 01:38:11;;;;;;;5.93;4.30;;;4.10;99.90;;;;;;6528057;22;20498;-70
2024/04/21 01:40:39;;;;;;;6.53;4.23;;;4.10;99.90;;;;;;6527482;22;20779;-70
2024/04/21 01:43:08;;;;;;;9.87;5.03;;;4.10;99.90;;;;;;6527642;22;20460;-70
2024/04/21 01:45:44;;;;;;;5.53;3.80;;;4.00;99.90;;;;;;6541325;21;20788;-69
2024/04/21 01:48:12;;;;;;;8.27;4.97;;;4.00;99.90;;;;;;6580229;21;20771;-70
2024/04/21 01:50:39;;;;;;;6.43;4.30;;;4.00;99.90;;;;;;6581517;21;20451;-69
2024/04/21 01:53:07;;;;;;;4.40;3.20;;;4.00;99.90;;;;;;6582902;21;20507;-69
2024/04/21 01:55:33;;;;;;;6.27;3.73;;;4.00;99.90;;;;;;6532424;21;20532;-69
2024/04/21 01:58:05;;;;;;;9.13;4.57;;;4.00;99.90;;;;;;6530478;22;20452;-71
2024/04/21 02:00:33;;;;;;;8.27;4.60;;;3.90;99.90;;;;;;6529231;21;20516;-70
2024/04/21 02:03:01;;;;;;;5.30;4.10;;;3.90;99.90;;;;;;6529481;22;20795;-70
2024/04/21 02:05:27;;;;;;;6.50;4.40;;;3.90;99.90;;;;;;6528487;21;20779;-69
2024/04/21 02:07:56;;;;;;;7.20;4.23;;;3.90;99.90;;;;;;6530143;22;20484;-69
2024/04/21 02:10:22;;;;;;;6.33;4.03;;;4.00;99.90;;;;;;6531023;22;20509;-69
2024/04/21 02:12:51;;;;;;;4.43;3.20;;;3.90;99.90;;;;;;6531121;22;20500;-69
2024/04/21 02:15:19;;;;;;;5.50;3.50;;;4.00;99.90;;;;;;6531008;21;20520;-70
2024/04/21 02:17:48;;;;;;;6.30;3.87;;;4.00;99.90;;;;;;6531900;21;20596;-70
2024/04/21 02:20:14;;;;;;;10.63;4.70;;;4.00;99.90;;;;;;6530905;21;20756;-70
2024/04/21 02:22:43;;;;;;;7.40;4.40;;;4.00;99.90;;;;;;6530569;21;20456;-70
2024/04/21 02:25:08;;;;;;;7.07;4.20;;;4.00;99.90;;;;;;6529673;21;20472;-70
2024/04/21 02:27:38;;;;;;;8.57;3.40;;;3.90;99.90;;;;;;6531410;21;20509;-71
2024/04/21 02:30:05;;;;;;;5.73;3.70;;;3.90;99.90;;;;;;6533036;22;20465;-69
2024/04/21 02:32:37;;;;;;;6.80;3.37;;;3.90;99.90;;;;;;6531535;21;20460;-69
2024/04/21 02:35:04;;;;;;;7.93;3.87;;;3.90;99.90;;;;;;6530287;21;20908;-69
2024/04/21 02:37:33;;;;;;;6.97;3.70;;;3.90;99.90;;;;;;6531864;22;20460;-69
2024/04/21 02:39:59;;;;;;;9.63;3.50;;;3.90;99.90;;;;;;6532242;22;20457;-68
2024/04/21 02:42:27;;;;;;;6.97;3.90;;;3.90;99.90;;;;;;6532165;21;20512;-70
2024/04/21 02:44:55;;;;;;;5.20;4.10;;;3.90;99.90;;;;;;6529779;21;20464;-68
2024/04/21 02:47:24;;;;;;;6.60;3.50;;;4.00;99.90;;;;;;6530468;22;20476;-69
2024/04/21 02:49:52;;;;;;;5.33;3.53;;;3.90;99.90;;;;;;6529161;22;20464;-69
2024/04/21 02:52:21;;;;;;;5.93;3.47;;;3.90;99.90;;;;;;6527990;22;20513;-70
2024/04/21 02:54:47;;;;;;;4.17;3.17;;;3.90;99.90;;;;;;6526705;21;20472;-70
2024/04/21 02:57:16;;;;;;;4.10;2.70;;;3.90;99.90;;;;;;6529694;22;20837;-69
2024/04/21 02:59:42;;;;;;;4.80;3.17;;;3.80;99.90;;;;;;6528673;22;20456;-69
2024/04/21 03:02:10;;;;;;;6.27;3.60;;;3.80;99.90;;;;;;6527773;22;20473;-69
2024/04/21 03:04:36;;;;;;;5.37;3.33;;;3.80;99.90;;;;;;6526114;21;20571;-70
2024/04/21 03:07:07;;;;;;;6.47;4.07;;;3.80;99.90;;;;;;6527247;22;20453;-70
2024/04/21 03:09:33;;;;;;;3.87;2.50;;;3.80;99.90;;;;;;6526929;22;20456;-70
2024/04/21 03:12:02;;;;;;;4.93;3.83;;;3.80;99.90;;;;;;6526797;22;20452;-70
2024/04/21 03:14:28;;;;;;;4.93;3.63;;;3.90;99.90;;;;;;6525864;21;20575;-69
2024/04/21 03:16:56;;;;;;;4.50;2.70;;;3.80;99.90;;;;;;6527255;22;20472;-69
2024/04/21 03:19:22;;;;;;;6.20;4.27;;;3.80;99.90;;;;;;6527391;22;20500;-69
2024/04/21 03:21:51;;;;;;;4.37;2.73;;;3.90;99.90;;;;;;6527468;22;20453;-69
2024/04/21 03:24:20;;;;;;;3.77;2.47;;;3.90;99.90;;;;;;6525451;21;20505;-70
2024/04/21 03:26:48;;;;;;;5.33;3.23;;;3.80;99.90;;;;;;6527481;22;21133;-70
2024/04/21 03:29:14;;;;;;;4.20;2.57;;;3.90;99.90;;;;;;6527446;22;20495;-69
2024/04/21 03:31:43;;;;;;;4.97;3.37;;;3.90;99.90;;;;;;6526723;22;20468;-70
2024/04/21 03:34:09;;;;;;;3.77;3.03;;;3.90;99.90;;;;;;6527574;21;20476;-69
2024/04/21 03:36:38;;;;;;;10.03;3.50;;;3.90;99.90;;;;;;6526096;22;20514;-70
2024/04/21 03:39:07;;;;;;;5.93;2.80;;;3.90;99.90;;;;;;6527324;22;20457;-70
2024/04/21 03:41:38;;;;;;;4.87;4.00;;;3.90;99.90;;;;;;6527325;22;20559;-70
2024/04/21 03:44:06;;;;;;;3.13;2.83;;;3.90;99.90;;;;;;6526260;21;20825;-70
2024/04/21 03:46:35;;;;;;;9.30;3.37;;;3.90;99.90;;;;;;6526309;22;20512;-70
2024/04/21 03:49:01;;;;;;;4.87;3.47;;;3.90;99.90;;;;;;6527161;22;20449;-70
2024/04/21 03:51:29;;;;;;;5.50;3.97;;;3.80;99.90;;;;;;6527489;22;20495;-70
2024/04/21 03:53:55;;;;;;;7.50;4.17;;;3.80;99.90;;;;;;6526806;21;20460;-70
2024/04/21 03:56:24;;;;;;;5.10;4.10;;;3.80;99.90;;;;;;6526403;22;20823;-70
2024/04/21 03:58:53;;;;;;;4.40;2.90;;;3.70;99.90;;;;;;6527326;22;20560;-70
2024/04/21 04:01:21;;;;;;;6.57;4.23;;;3.70;99.90;;;;;;6527580;22;20452;-70
2024/04/21 04:03:47;;;;;;;7.20;3.30;;;3.70;99.90;;;;;;6527886;21;20468;-70
2024/04/21 04:06:16;;;;;;;3.70;2.67;;;3.70;99.90;;;;;;6527917;22;20472;-70
2024/04/21 04:08:45;;;;;;;5.87;3.03;;;3.70;99.90;;;;;;6527775;22;20461;-70
2024/04/21 04:11:13;;;;;;;6.33;2.67;;;3.60;99.90;;;;;;6529190;22;20469;-69
2024/04/21 04:13:39;;;;;;;5.17;3.60;;;3.80;99.90;;;;;;6530061;21;20549;-69
2024/04/21 04:16:10;;;;;;;8.30;4.00;;;3.60;99.90;;;;;;6528477;22;20462;-69
2024/04/21 04:18:36;;;;;;;6.30;3.07;;;3.60;99.90;;;;;;6532265;22;20498;-70
2024/04/21 04:21:05;;;;;;;9.53;3.53;;;3.60;99.90;;;;;;6532131;22;20456;-69
2024/04/21 04:23:35;;;;;;;5.63;3.30;;;3.60;99.90;;;;;;6529600;21;20539;-68
2024/04/21 04:26:01;;;;;;;5.50;3.27;;;3.60;99.90;;;;;;6533946;22;20460;-69
2024/04/21 04:28:29;;;;;;;4.83;2.43;;;3.60;99.90;;;;;;6535984;22;20858;-69
2024/04/21 04:30:55;;;;;;;3.67;2.43;;;3.60;99.90;;;;;;6534959;22;20505;-68
2024/04/21 04:33:26;;;;;;;4.53;2.70;;;3.60;99.90;;;;;;6527629;21;20452;-70
2024/04/21 04:35:52;;;;;;;7.80;4.00;;;3.60;99.90;;;;;;6526366;22;20513;-70
2024/04/21 04:38:21;;;;;;;4.00;3.00;;;3.70;99.90;;;;;;6527753;22;20445;-70
2024/04/21 04:40:47;;;;;;;6.80;4.93;;;3.60;99.90;;;;;;6527319;22;20456;-70
2024/04/21 04:43:15;;;;;;;5.10;2.83;;;3.60;99.90;;;;;;6527790;22;20460;-69
2024/04/21 04:45:41;;;;;;;4.67;2.90;;;3.70;99.90;;;;;;6535207;21;20521;-70
2024/04/21 04:48:10;;;;;;;5.87;2.87;;;3.60;99.90;;;;;;6539998;22;20452;-69
2024/04/21 04:50:38;;;;;;;5.40;3.30;;;3.60;99.90;;;;;;6539111;22;20452;-69
2024/04/21 04:53:07;;;;;;;4.97;3.07;;;3.60;99.90;;;;;;6533734;22;20464;-69
2024/04/21 04:55:33;;;;;;;4.77;2.87;;;3.60;99.90;;;;;;6527022;21;20765;-69
2024/04/21 04:58:02;;;;;;;7.00;4.10;;;3.60;99.90;;;;;;6529199;22;20460;-69
2024/04/21 05:00:28;;;;;;;4.50;3.37;;;3.60;99.90;;;;;;6528838;22;20463;-69
2024/04/21 05:02:56;;;;;;;5.60;2.93;;;3.60;99.90;;;;;;6528592;22;20516;-70
2024/04/21 05:05:23;;;;;;;9.23;3.00;;;3.60;99.90;;;;;;6527915;21;20468;-70
2024/04/21 05:07:54;;;;;;;4.60;2.60;;;3.60;99.90;;;;;;6529852;22;20523;-70
2024/04/21 05:10:20;;;;;;;4.97;3.60;;;3.60;99.90;;;;;;6530841;22;20456;-70
2024/04/21 05:12:49;;;;;;;7.60;3.90;;;3.50;99.90;;;;;;6529265;22;20456;-70
2024/04/21 05:15:15;;;;;;;4.10;2.90;;;3.50;99.90;;;;;;6528088;21;20516;-69
2024/04/21 05:17:43;;;;;;;5.50;3.23;;;3.60;99.90;;;;;;6528940;22;20503;-70
2024/04/21 05:20:10;;;;;;;6.20;3.40;;;3.60;99.90;;;;;;6528547;22;20769;-69
2024/04/21 05:22:39;;;;;;;7.43;3.87;;;3.70;99.90;;;;;;6528675;22;20460;-70
2024/04/21 05:25:07;;;;;;;4.43;2.80;;;3.80;99.90;;;;;;6527682;21;21021;-70
2024/04/21 05:27:36;;;;;;;4.53;2.80;;;3.80;99.90;;;;;;6528079;22;20452;-71
2024/04/21 05:30:02;;;;;;;5.63;3.70;;;3.80;99.90;;;;;;6528708;22;20763;-69
2024/04/21 05:32:31;;;;;;;5.80;4.03;;;3.90;99.90;;;;;;6529137;22;20456;-70
2024/04/21 05:34:57;;;;;;;3.97;2.90;;;3.90;99.90;;;;;;6527654;21;20504;-70
2024/04/21 05:37:25;;;;;;;4.73;2.83;;;4.00;99.90;;;;;;6529812;22;20780;-68
2024/04/21 05:39:51;;;;;;;5.20;2.90;;;4.10;99.90;;;;;;6528334;22;20449;-71
2024/04/21 05:42:22;;;;;;;7.20;3.30;;;4.20;99.90;;;;;;6528419;22;20941;-70
2024/04/21 05:44:48;;;;;;;5.03;2.77;;;4.20;99.90;;;;;;6527846;21;20468;-70
2024/04/21 05:47:18;;;;;;;5.03;2.97;;;4.30;99.90;;;;;;6528741;22;20516;-70
2024/04/21 05:49:44;;;;;;;5.83;3.07;;;4.30;99.90;;;;;;6528674;22;20505;-70
2024/04/21 05:52:14;;;;;;;7.67;3.27;;;4.40;99.90;;;;;;6528314;22;20436;-69
2024/04/21 05:54:40;;;;;;;4.90;3.20;;;4.40;99.90;;;;;;6527360;21;21013;-69
2024/04/21 05:57:09;;;;;;;4.20;3.50;;;4.50;99.90;;;;;;6528254;22;20456;-70
2024/04/21 05:59:38;;;;;;;7.10;2.73;;;4.50;99.90;;;;;;6527985;22;20460;-70
2024/04/21 06:02:08;;;;;;;6.63;3.50;;;4.70;99.90;;;;;;6528782;22;20559;-71
2024/04/21 06:04:34;;;;;;;4.87;3.00;;;4.80;99.90;;;;;;6527123;21;20964;-70
2024/04/21 06:07:02;;;;;;;5.13;3.13;;;5.00;99.90;;;;;;6527662;22;20533;-69
2024/04/21 06:09:28;;;;;;;7.07;3.57;;;5.00;99.90;;;;;;6528170;22;20528;-69
2024/04/21 06:11:57;;;;;;;6.30;4.63;;;5.20;99.90;;;;;;6528131;22;20465;-70
2024/04/21 06:14:23;;;;;;;11.53;3.20;;;5.30;99.90;;;;;;6528974;21;20516;-69
2024/04/21 06:16:54;;;;;;;6.83;3.20;;;5.40;99.90;;;;;;6529254;22;20468;-69
2024/04/21 06:19:20;;;;;;;5.97;2.77;;;5.50;99.90;;;;;;6527829;22;20504;-70
2024/04/21 06:21:50;;;;;;;7.10;2.90;;;5.50;99.90;;;;;;6528194;22;20456;-69
2024/04/21 06:24:16;;;;;;;3.73;3.00;;;5.50;99.90;;;;;;6527339;21;20472;-69
2024/04/21 06:26:45;;;;;;;5.27;3.23;;;5.50;99.90;;;;;;6528723;22;21009;-69
2024/04/21 06:29:14;;;;;;;6.13;2.83;;;5.40;99.90;;;;;;6528448;22;20937;-70
2024/04/21 06:31:43;;;;;;;9.03;4.33;;;5.40;99.90;;;;;;6527442;22;20564;-69
2024/04/21 06:34:12;;;;;;;3.90;2.40;;;5.40;99.90;;;;;;6527508;21;20513;-70
2024/04/21 06:36:40;;;;;;;3.07;2.70;;;5.40;99.90;;;;;;6528471;22;20453;-70
2024/04/21 06:39:06;;;;;;;4.17;2.77;;;5.50;99.90;;;;;;6528056;22;20496;-69
2024/04/21 06:41:35;;;;;;;5.30;2.80;;;5.60;99.90;;;;;;6527985;22;20461;-70
2024/04/21 06:44:00;;;;;;;3.67;2.83;;;5.60;99.90;;;;;;6527425;21;20472;-70
2024/04/21 06:46:29;;;;;;;3.83;2.37;;;5.60;99.90;;;;;;6527011;22;20507;-70
2024/04/21 06:48:55;;;;;;;5.10;3.30;;;5.60;99.90;;;;;;6527483;22;20452;-70
2024/04/21 06:51:27;;;;;;;3.57;2.43;;;5.70;99.90;;;;;;6527720;22;20580;-70
2024/04/21 06:53:54;;;;;;;3.73;2.47;;;5.80;99.90;;;;;;6527414;21;20472;-68
2024/04/21 06:56:23;;;;;;;4.60;2.73;;;5.80;99.90;;;;;;6527000;22;20578;-69
2024/04/21 06:58:49;;;;;;;3.23;2.13;;;5.80;99.90;;;;;;6527837;22;20448;-70
2024/04/21 07:01:17;;;;;;;5.53;2.53;;;5.90;99.90;;;;;;6528483;22;20468;-70
2024/04/21 07:03:44;;;;;;;2.83;2.00;;;6.10;99.90;;;;;;6528258;21;20882;-69
2024/04/21 07:06:12;;;;;;;3.70;2.57;;;6.10;99.90;;;;;;6529804;22;20465;-70
2024/04/21 07:08:41;;;;;;;2.50;2.07;;;6.20;99.90;;;;;;6538145;22;20820;-70
2024/04/21 07:11:10;;;;;;;4.33;2.07;;;6.30;99.90;;;;;;6539037;22;20831;-70
2024/04/21 07:13:36;;;;;;;6.00;2.67;;;6.40;99.90;;;;;;6537506;21;20453;-70
2024/04/21 07:16:05;;;;;;;3.30;2.27;;;6.40;99.90;;;;;;6530605;22;20456;-70
2024/04/21 07:18:31;;;;;;;2.63;2.33;;;6.50;99.90;;;;;;6529395;22;20449;-69
2024/04/21 07:20:59;;;;;;;3.27;2.50;;;6.50;99.90;;;;;;6529798;22;20572;-71
2024/04/21 07:23:25;;;;;;;2.97;2.10;;;6.60;99.90;;;;;;6528268;21;20509;-70
2024/04/21 07:25:56;;;;;;;3.03;2.20;;;6.60;99.90;;;;;;6528062;22;20460;-69
2024/04/21 07:28:25;;;;;;;4.63;2.97;;;6.70;99.90;;;;;;6528974;22;20456;-70
2024/04/21 07:30:52;;;;;;;5.37;2.70;;;6.70;99.90;;;;;;6528903;22;20460;-69
2024/04/21 07:33:20;;;;;;;5.67;2.70;;;6.70;99.90;;;;;;6529289;22;20456;-70
2024/04/21 07:35:46;;;;;;;5.17;3.33;;;6.80;99.90;;;;;;6527392;22;20461;-70
2024/04/21 07:38:15;;;;;;;4.60;2.27;;;6.90;99.90;;;;;;6528937;22;20508;-70
2024/04/21 07:40:43;;;;;;;3.80;2.43;;;7.00;99.90;;;;;;6529100;22;20495;-69
2024/04/21 07:43:14;;;;;;;7.03;2.93;;;7.00;99.30;;;;;;6529342;22;20513;-70
2024/04/21 07:45:43;;;;;;;5.77;2.60;;;7.20;98.70;;;;;;6529673;21;20576;-69
2024/04/21 07:48:09;;;;;;;6.33;2.93;;;7.30;98.80;;;;;;6529881;22;20472;-71
2024/04/21 07:50:37;;;;;;;3.73;2.20;;;7.40;99.50;;;;;;6529564;22;20523;-70
2024/04/21 07:53:04;;;;;;;6.40;3.80;;;7.70;97.40;;;;;;6531637;22;20217;-69
2024/04/21 07:55:32;;;;;;;7.70;2.00;;;8.40;95.50;;;;;;6530552;21;20524;-70
2024/04/21 07:57:59;;;;;;;5.50;3.23;;;9.60;92.00;;;;;;6533126;22;20737;-70
2024/04/21 08:00:30;;;;;;;5.30;2.07;;;11.30;84.60;;;;;;6533007;22;20576;-70
2024/04/21 08:02:56;;;;;;;5.13;2.00;;;13.20;72.50;;;;;;6534324;22;20457;-70
2024/04/21 08:05:25;;;;;;;3.70;2.30;;;14.90;63.20;;;;;;6533759;21;20538;-69
2024/04/21 08:07:51;;;;;;;2.90;2.17;;;16.40;57.10;;;;;;6534985;22;20832;-69
2024/04/21 08:10:20;;;;;;;3.80;2.60;;;17.90;52.60;;;;;;6532213;22;20460;-69
2024/04/21 08:12:46;;;;;;;3.53;2.43;;;18.90;47.40;;;;;;6528783;22;20449;-70
2024/04/21 08:15:15;;;;;;;2.60;2.07;;;19.90;45.30;;;;;;6525607;21;20516;-69
2024/04/21 08:17:44;;;;;;;2.40;2.20;;;20.80;43.00;;;;;;6527035;22;20795;-70
2024/04/21 08:20:13;;;;;;;2.67;2.47;;;21.50;41.10;;;;;;6526972;22;20460;-69
2024/04/21 08:22:39;;;;;;;4.10;3.03;;;22.00;39.10;;;;;;6527194;21;20508;-69
2024/04/21 08:25:08;;;;;;;3.57;2.17;;;22.10;38.20;;;;;;6525800;21;20567;-69
2024/04/21 08:27:34;;;;;;;2.70;2.37;;;22.20;37.50;;;;;;6526055;22;20455;-68
2024/04/21 08:30:03;;;;;;;3.43;2.80;;;22.30;37.50;;;;;;6526023;22;20575;-69
2024/04/21 08:32:29;;;;;;;2.10;1.90;;;22.40;36.60;;;;;;6526853;22;20452;-69
2024/04/21 08:35:00;;;;;;;2.47;2.07;;;22.40;36.30;;;;;;6525748;21;20505;-69
2024/04/21 08:37:26;;;;;;;3.17;2.40;;;22.40;35.80;;;;;;6527098;22;20459;-69
2024/04/21 08:39:55;;;;;;;3.83;2.10;;;22.30;35.90;;;;;;6526053;22;20799;-68
2024/04/21 08:42:25;;;;;;;2.40;2.00;;;22.40;35.40;;;;;;6525871;22;20548;-68
2024/04/21 08:44:54;;;;;;;5.20;2.30;;;22.50;35.40;;;;;;6524777;21;20536;-69
2024/04/21 08:47:20;;;;;;;5.03;2.63;;;22.40;35.10;;;;;;6525597;22;20544;-68
2024/04/21 08:49:52;;;;;;;7.07;2.53;;;22.40;35.30;;;;;;6526158;22;20505;-70
2024/04/21 08:52:24;;;;;;;3.83;2.53;;;22.20;35.80;;;;;;6525923;22;20464;-70
2024/04/21 08:54:52;;;;;;;2.50;2.10;;;22.00;34.50;;;;;;6524881;21;20479;-69
2024/04/21 08:57:21;;;;;;;2.93;2.20;;;21.90;34.80;;;;;;6525994;22;20455;-70
2024/04/21 08:59:51;;;;;;;5.03;2.07;;;22.20;36.20;;;;;;6525980;22;20459;-68
2024/04/21 09:02:21;;;;;;;2.47;1.90;;;22.30;35.20;;;;;;6526094;22;20500;-69
2024/04/21 09:04:50;;;;;;;4.93;3.00;;;22.00;34.90;;;;;;6524727;21;20880;-70
2024/04/21 09:07:18;;;;;;;2.27;1.90;;;21.80;35.20;;;;;;6525942;22;20459;-68
2024/04/21 09:09:49;;;;;;;4.57;2.47;;;21.40;35.00;;;;;;6525486;22;20471;-68
2024/04/21 09:12:16;;;;;;;3.40;2.80;;;20.20;36.40;;;;;;6525854;22;20453;-69
2024/04/21 09:14:45;;;;;;;3.27;2.70;;;19.00;36.00;;;;;;6524489;21;20573;-68
2024/04/21 09:17:11;;;;;;;5.53;2.37;;;18.20;38.10;;;;;;6525375;22;20563;-69
2024/04/21 09:19:40;;;;;;;3.20;2.60;;;18.40;38.60;;;;;;6525762;22;20944;-68
2024/04/21 09:22:06;;;;;;;3.27;2.13;;;18.30;38.70;;;;;;6525925;22;20460;-69
2024/04/21 09:24:35;;;;;;;3.20;2.30;;;18.60;38.60;;;;;;6524762;21;20464;-69
2024/04/21 09:27:04;;;;;;;2.80;2.17;;;19.10;38.50;;;;;;6526219;22;20474;-67
2024/04/21 09:29:32;;;;;;;5.10;2.83;;;19.50;37.40;;;;;;6529813;22;20494;-69
2024/04/21 09:31:59;;;;;;;2.40;1.70;;;18.80;37.90;;;;;;6535814;22;20932;-71
2024/04/21 09:34:29;;;;;;;3.00;2.53;;;18.70;39.00;;;;;;6535456;21;20509;-69
2024/04/21 09:36:56;;;;;;;3.17;2.80;;;19.10;38.50;;;;;;6535296;22;20456;-70
2024/04/21 09:39:25;;;;;;;2.20;2.00;;;19.30;37.70;;;;;;6529282;22;20564;-70
2024/04/21 09:41:54;;;;;;;2.47;1.90;;;19.30;37.80;;;;;;6526832;22;20456;-68
2024/04/21 09:44:26;;;;;;;2.60;1.97;;;19.20;37.80;;;;;;6527207;21;20460;-69
2024/04/21 09:46:53;;;;;;;4.90;2.27;;;19.10;37.90;;;;;;6528332;22;20509;-69
2024/04/21 09:49:24;;;;;;;3.30;2.13;;;19.30;37.50;;;;;;6527852;22;20472;-69
2024/04/21 09:51:50;;;;;;;4.70;2.20;;;19.50;38.00;;;;;;6528538;22;20495;-69
2024/04/21 09:54:20;;;;;;;3.40;1.83;;;19.80;37.50;;;;;;6526901;21;20549;-68
2024/04/21 09:56:56;;;;;;;2.73;2.10;;;20.10;37.20;;;;;;6527593;22;20925;-69
2024/04/21 09:59:33;;;;;;;3.37;2.10;;;20.30;37.00;;;;;;6528185;22;20450;-68
2024/04/21 10:02:00;;;;;;;2.83;2.37;;;20.40;36.90;;;;;;6528338;22;20516;-71
2024/04/21 10:04:32;;;;;;;2.90;2.23;;;20.30;37.10;;;;;;6527134;21;20481;-69
2024/04/21 10:06:58;;;;;;;2.80;1.90;;;20.00;37.50;;;;;;6527775;22;20460;-68
2024/04/21 10:09:28;;;;;;;2.20;2.00;;;19.40;36.50;;;;;;6527933;22;20528;-69
2024/04/21 10:11:55;;;;;;;2.13;1.93;;;18.40;38.10;;;;;;6527577;22;20531;-69
2024/04/21 10:14:26;;;;;;;2.90;2.20;;;18.20;38.90;;;;;;6526281;21;20569;-68
2024/04/21 10:16:53;;;;;;;2.73;2.50;;;18.00;39.30;;;;;;6527488;22;20528;-68
2024/04/21 10:19:25;;;;;;;2.10;1.90;;;18.30;39.90;;;;;;6527425;22;20505;-68
2024/04/21 10:21:51;;;;;;;4.03;2.23;;;18.60;39.40;;;;;;6527430;22;20461;-69
2024/04/21 10:24:21;;;;;;;1.73;1.60;;;18.80;39.90;;;;;;6526697;21;20476;-69
2024/04/21 10:26:58;;;;;;;2.40;1.87;;;18.90;40.90;;;;;;6527456;22;20460;-69
2024/04/21 10:29:31;;;;;;;7.57;2.70;;;19.10;40.60;;;;;;6527371;22;20537;-69
2024/04/21 10:32:11;;;;;;;2.40;2.20;;;18.90;40.30;;;;;;6527376;22;20460;-69
2024/04/21 10:34:46;;;;;;;3.70;2.63;;;17.90;40.40;;;;;;6526337;21;20468;-69
2024/04/21 10:37:13;;;;;;;4.70;3.40;;;16.80;41.70;;;;;;6528160;22;20463;-68
2024/04/21 10:39:42;;;;;;;5.33;2.50;;;15.80;42.80;;;;;;6527154;22;20858;-69
2024/04/21 10:42:10;;;;;;;4.80;3.00;;;14.80;44.10;;;;;;6526829;22;20449;-69
2024/04/21 10:44:42;;;;;;;2.90;2.37;;;14.10;44.70;;;;;;6525941;21;20501;-70
2024/04/21 10:47:08;;;;;;;5.20;2.73;;;13.30;46.00;;;;;;6527018;22;20516;-69
2024/04/21 10:49:37;;;;;;;3.17;2.10;;;12.80;47.20;;;;;;6526780;22;20564;-69
2024/04/21 10:52:04;;;;;;;3.50;2.43;;;12.50;48.10;;;;;;6527258;22;20456;-68
2024/04/21 10:54:33;;;;;;;2.70;2.13;;;12.30;49.00;;;;;;6525772;21;20460;-68
2024/04/21 10:57:02;;;;;;;2.37;1.60;;;12.00;49.60;;;;;;6526759;22;20513;-69
2024/04/21 10:59:30;;;;;;;2.43;1.77;;;11.80;49.60;;;;;;6526253;22;20799;-68
2024/04/21 11:02:01;;;;;;;5.97;2.20;;;11.70;50.50;;;;;;6526584;22;20453;-68
2024/04/21 11:04:28;;;;;;;2.70;2.10;;;11.70;50.60;;;;;;6525736;21;20461;-68
2024/04/21 11:06:57;;;;;;;2.70;2.10;;;11.60;50.70;;;;;;6526561;22;20452;-70
2024/04/21 11:09:24;;;;;;;3.97;2.20;;;11.60;50.70;;;;;;6526660;22;20457;-71
2024/04/21 11:11:53;;;;;;;2.83;2.13;;;11.50;50.60;;;;;;6527194;22;20453;-67
2024/04/21 11:14:21;;;;;;;4.07;2.80;;;11.40;50.80;;;;;;6525600;21;20516;-68
2024/04/21 11:16:53;;;;;;;3.60;1.90;;;11.40;50.20;;;;;;6527197;22;20460;-69
2024/04/21 11:19:22;;;;;;;3.30;2.37;;;11.30;50.60;;;;;;6526941;22;20501;-68
2024/04/21 11:21:51;;;;;;;24.77;10.87;;;11.30;50.60;;;;;;6527479;22;20792;-68
2024/04/21 11:24:17;;;;;;;14.10;4.67;;;11.30;51.00;;;;;;6526335;21;20509;-70
2024/04/21 11:26:46;;;;;;;2.73;1.97;;;11.40;51.40;;;;;;6527122;22;20453;-68
2024/04/21 11:29:12;;;;;;;5.40;2.83;;;11.40;51.90;;;;;;6527023;22;20508;-68
2024/04/21 11:31:41;;;;;;;4.20;2.23;;;11.40;51.70;;;;;;6527996;22;20977;-68
2024/04/21 11:34:07;;;;;;;4.70;2.40;;;11.60;52.50;;;;;;6527769;21;20525;-69
2024/04/21 11:36:38;;;;;;;3.70;2.10;;;11.70;52.20;;;;;;6527271;22;20519;-70
2024/04/21 11:39:04;;;;;;;3.20;2.00;;;11.90;52.10;;;;;;6527053;22;20457;-69
2024/04/21 11:41:33;;;;;;;1.50;1.40;;;12.00;52.50;;;;;;6528911;22;20572;-68
2024/04/21 11:44:01;;;;;;;1.80;1.60;;;12.10;50.80;;;;;;6527622;21;20894;-69
2024/04/21 11:46:31;;;;;;;1.93;1.60;;;12.10;49.30;;;;;;6525727;22;20461;-67
2024/04/21 11:48:59;;;;;;;3.20;2.10;;;12.20;49.60;;;;;;6526992;22;21100;-68
2024/04/21 11:51:25;;;;;;;2.63;1.90;;;12.20;50.20;;;;;;6528150;22;20994;-69
2024/04/21 11:53:58;;;;;;;3.90;2.20;;;12.40;50.90;;;;;;6532157;21;20864;-68
2024/04/21 11:56:25;;;;;;;4.70;2.53;;;12.50;50.60;;;;;;6532094;22;20468;-70
2024/04/21 11:58:54;;;;;;;4.57;3.10;;;12.70;51.60;;;;;;6531955;22;20589;-68
2024/04/21 12:01:20;;;;;;;3.80;2.50;;;12.90;50.90;;;;;;6527597;22;20949;-68
2024/04/21 12:03:49;;;;;;;3.67;2.30;;;13.00;50.20;;;;;;6527024;21;20516;-69
2024/04/21 12:06:15;;;;;;;2.07;1.80;;;12.90;49.60;;;;;;6525955;22;20456;-69
2024/04/21 12:08:45;;;;;;;2.73;2.00;;;12.80;48.90;;;;;;6526443;22;20509;-68
2024/04/21 12:11:15;;;;;;;4.30;2.00;;;12.60;47.80;;;;;;6525939;22;20821;-69
2024/04/21 12:13:43;;;;;;;5.57;2.40;;;12.40;49.00;;;;;;6526386;21;20508;-69
2024/04/21 12:16:09;;;;;;;3.07;1.97;;;12.40;50.40;;;;;;6525128;22;20500;-69
2024/04/21 12:18:38;;;;;;;2.10;1.37;;;12.60;50.10;;;;;;6525985;22;20516;-69
2024/04/21 12:21:04;;;;;;;4.20;2.00;;;12.80;50.10;;;;;;6526377;22;20494;-69
2024/04/21 12:23:33;;;;;;;4.90;2.23;;;12.90;49.60;;;;;;6525708;21;20449;-68
2024/04/21 12:25:59;;;;;;;2.33;2.00;;;13.00;49.90;;;;;;6524788;22;20513;-68
2024/04/21 12:28:30;;;;;;;2.97;1.80;;;12.80;49.90;;;;;;6525862;22;20517;-69
2024/04/21 12:31:00;;;;;;;3.00;2.50;;;12.60;50.30;;;;;;6526570;22;20461;-69
2024/04/21 12:33:29;;;;;;;2.43;2.07;;;12.50;50.70;;;;;;6525896;21;20468;-69
2024/04/21 12:35:55;;;;;;;3.27;2.60;;;12.30;50.90;;;;;;6524454;22;20509;-69
2024/04/21 12:38:23;;;;;;;3.10;2.40;;;12.30;52.10;;;;;;6526023;22;20837;-67
2024/04/21 12:40:52;;;;;;;3.70;2.70;;;12.40;52.20;;;;;;6525813;22;20460;-69
2024/04/21 12:43:21;;;;;;;3.57;2.00;;;12.40;53.00;;;;;;6525858;21;20456;-69
2024/04/21 12:45:54;;;;;;;2.90;2.20;;;12.60;52.20;;;;;;6525170;22;20941;-69
2024/04/21 12:48:24;;;;;;;2.40;1.80;;;12.70;52.50;;;;;;6526075;22;21017;-68
2024/04/21 12:50:51;;;;;;;4.10;3.10;;;12.90;51.80;;;;;;6526342;22;20453;-68
2024/04/21 12:53:20;;;;;;;2.40;2.20;;;12.90;50.90;;;;;;6525791;22;21022;-68
2024/04/21 12:55:46;;;;;;;7.00;2.53;;;12.70;51.30;;;;;;6525059;22;20452;-69
2024/04/21 12:58:14;;;;;;;3.30;2.27;;;12.50;51.50;;;;;;6526004;22;20772;-68